createdAt,value
2023-01-10T00:00:26.819Z,512.00
2023-01-10T00:01:26.691Z,511.00
2023-01-10T00:02:26.725Z,512.00
2023-01-10T00:03:26.692Z,517.00
2023-01-10T00:04:26.771Z,517.00
2023-01-10T00:05:26.653Z,519.00
2023-01-10T07:07:36.074Z,630.00
2023-01-10T08:02:34.589Z,702.00
2023-01-10T08:03:34.568Z,714.00
2023-01-10T08:04:34.371Z,727.00
2023-01-10T08:05:34.365Z,724.00
2023-01-10T08:06:34.356Z,740.00
2023-01-10T08:09:34.334Z,781.00
2023-01-10T08:11:34.315Z,788.00
2023-01-10T08:12:34.289Z,800.00
2023-01-10T08:13:34.316Z,805.00
2023-01-10T08:14:34.361Z,828.00
2023-01-10T08:15:34.270Z,841.00
2023-01-10T08:16:34.275Z,853.00
2023-01-10T08:17:34.254Z,879.00
2023-01-10T08:19:34.227Z,869.00
2023-01-10T08:20:34.221Z,899.00
2023-01-10T08:22:34.547Z,904.00
2023-01-10T08:23:34.309Z,927.00
2023-01-10T08:24:34.195Z,947.00
2023-01-10T08:25:34.190Z,937.00
2023-01-10T08:27:34.161Z,977.00
2023-01-10T08:28:34.155Z,973.00
2023-01-10T08:29:34.151Z,993.00
2023-01-10T08:30:34.147Z,1003.00
2023-01-10T08:32:34.125Z,1010.00
2023-01-10T08:33:34.135Z,1062.00
2023-01-10T08:34:34.137Z,1070.00
2023-01-10T08:35:34.084Z,1089.00
2023-01-10T08:37:34.072Z,1041.00
2023-01-10T08:38:34.090Z,1049.00
2023-01-10T08:40:34.048Z,1074.00
2023-01-10T08:41:34.042Z,1076.00
2023-01-10T08:42:34.033Z,1077.00
2023-01-10T08:43:34.043Z,1092.00
2023-01-10T08:45:34.062Z,1100.00
2023-01-10T08:48:33.969Z,1122.00
2023-01-10T08:49:33.970Z,1111.00
2023-01-10T08:50:33.966Z,1106.00
2023-01-10T08:51:34.151Z,1095.00
2023-01-10T08:52:33.936Z,1112.00
2023-01-10T08:53:33.937Z,1120.00
2023-01-10T08:54:33.917Z,1147.00
2023-01-10T08:55:33.935Z,1119.00
2023-01-10T08:56:34.131Z,858.00
2023-01-10T08:57:33.899Z,797.00
2023-01-10T08:58:33.921Z,727.00
2023-01-10T09:00:33.867Z,666.00
2023-01-10T09:01:34.315Z,658.00
2023-01-10T09:03:34.319Z,758.00
2023-01-10T09:05:33.846Z,731.00
2023-01-10T09:06:34.147Z,693.00
2023-01-10T09:07:33.889Z,705.00
2023-01-10T09:08:34.150Z,702.00
2023-01-10T09:09:34.179Z,701.00
2023-01-10T09:11:33.884Z,721.00
2023-01-10T09:17:34.131Z,810.00
2023-01-10T10:07:35.367Z,666.00
2023-01-10T10:27:34.230Z,815.00
2023-01-10T10:29:36.522Z,693.00
2023-01-10T10:49:33.872Z,539.00
2023-01-10T15:16:30.379Z,611.00
2023-01-10T18:42:28.440Z,507.00
2023-01-10T18:43:28.430Z,508.00
2023-01-10T18:44:28.437Z,508.00
2023-01-10T18:45:28.416Z,511.00
2023-01-10T18:46:28.603Z,507.00
2023-01-10T18:47:28.424Z,505.00
2023-01-10T18:48:28.394Z,502.00
2023-01-10T18:49:28.386Z,502.00
2023-01-10T18:50:28.367Z,503.00
2023-01-10T18:51:28.357Z,508.00
2023-01-10T18:52:28.348Z,507.00
2023-01-10T18:53:28.337Z,510.00
2023-01-10T18:54:28.345Z,503.00
2023-01-10T18:55:28.331Z,512.00
2023-01-10T18:56:28.310Z,509.00
2023-01-10T18:57:28.303Z,511.00
2023-01-10T18:58:28.304Z,513.00
2023-01-10T18:59:28.282Z,509.00
2023-01-10T19:00:28.273Z,510.00
2023-01-10T19:01:28.298Z,506.00
2023-01-10T19:02:28.293Z,513.00
2023-01-10T19:03:28.269Z,505.00
2023-01-10T19:04:28.235Z,510.00
2023-01-10T19:05:28.225Z,505.00
2023-01-10T19:06:28.219Z,504.00
2023-01-10T19:07:28.225Z,510.00
2023-01-10T19:08:28.202Z,515.00
2023-01-10T19:09:28.381Z,507.00
2023-01-10T19:10:29.043Z,512.00
2023-01-10T19:11:28.176Z,512.00
2023-01-10T19:12:28.158Z,510.00
2023-01-10T19:27:28.393Z,509.00
2023-01-10T19:41:28.885Z,502.00
2023-01-10T19:53:28.393Z,504.00
